Timeline UpdatesTrip UpdatesNews PostsPvt Posts♥♥Travel TipsAdmin PostsConv PostsFollowed PostsChat RequestsBlog PostsPNR Posts

Disclaimer
Search
 
 
Sat Oct 25, 2014 06:08:12 ISTHomeTrainsΣChainsAtlasPNRForumGalleryNewsFAQTripsMembersLoginFeedback
No Recent News for this Train
Other Trains in the News **new
Latest...
.
Mon Sep 08, 2014 (11:27PM)
⇐ Return Journey: Train# 17480

17479/Puri-Tirupati Express

Time-Table HAS CHANGED.
Sep 08 2014 (11:27PM)
Change Departure Station:
Change Arrival Station:
Post a Train Travel TipPost a Train Travel Tip **new
Post a Comment/Question/Picture/VideoPost a Comment/Question/Picture/Video
Inaugural Run
Wed Jan 01, 1992
Pantry/Catering
✕ NO Pantry Car
✕ NO Catering
Loco/Rake Reversals
KUR/Khurda Road Junction (7); VSKP/Visakhapatnam Junction (8);
RSA - Rake Sharing
Rake/Coach Composition
Entry# 194081 Author: νιηαy దత్త 1:; SLRD(For Disabled + Ladies Only) - UR - UR - S1 - S2 - S3 - S4 - S5 - B1 - UR - UR - UR - SLR(Ladies Only)
Loco
Official Loco:- PURI/KUR - VSKP:- WAM-4 VSKP - RJY:- WAM-4/WAP-1 RJY - BZA:-...
Read more...
WDM-2A/WDM-3A BZA - TPTY:- WAM-4/WAP-1
News    PNR    Forum    Time-Table    Availability    Fare Chart    Map    Arr/Dep History    Trips    Gallery    ΣChains    X/O    Timeline    
Travel Time: 2h 35m    7 halts    Distance: 115 km    Avg Speed: 44 km/hr
Type: Mail/Express
Zone: SCR/South Central
Departs @ 12:25 (Avg 2m late)
Platform# 9
SM WTF 
Puri/PURI 
Arrives @ 15:00 (Avg 16m late)
Platform# ???
SM WTF 
Balugaon/BALU 

7 halts. 22 intermediate Stations between Puri and Balugaon

Show ALL intermediate Stations  Show Old Time-Table

#TrkCodeStation NameX/OArrivesAvgDepartsAvgHaltPFDay#KmSpeedElevZoneAddress
1%==%PURIPuri (5)»  -12:25+2910.04912mECoRPuri, Odisha
2%==%SILSakhi Gopal (3)  12:45+912:46+101m--116.44210mECoRPuri, Odisha
3/==/KURKhurda Road Junction (7)X13:25+413:50+825m--143.97925mECoRKhordha, Odisha
4/==/NKPNirakarpurX  14:11 14:10+1514:12+151 2m--170.37121mECoRNirakarpur, Odisha
5/==/BSDPBhusandpurX  14:20 14:18+1514:21 14:20+151 2m--177.47420mECoRBhushandapur, Odisha
6/==/KAPGKalupara GhatX  14:30 14:28+1614:31 14:30+151 2m--187.36710mECoRChandeswar, Odisha
7/==/KUUKuhuri  14:38 14:36+1614:39 14:38+161 2m--194.06826mECoRKhordha, Odisha
8/==/GNGDGangadharpur  14:47 14:45+1614:48 14:47+171 2m--1102.06022mECoRKhordha, Odisha
9/==/BALUBalugaon (3)•X  15:01 15:00+1615:02+161 2m--1115.04811mECoR752030, Odisha
10/==/CLKAChilka  15:09 15:11+1515:10 15:13+151 2m--1122.27525mECoRBarkul, Odisha
11/==/KITKhallikot (3)X  15:18 15:21+1515:19 15:23+151 2m--1132.27513mECoRKhallikot, Odisha
12/==/RBARambhaX  15:29 15:32+1515:30 15:34+161 2m--1143.48614mECoRGanjam District, Odisha
13/==/GAMGanjamX  15:43 15:46+1515:44 15:48+161 2m--1160.7678mECoRGanjam, Odisha
14/==/CAPChatrapur  15:54 15:56+1615:55 15:58+171 2m--1169.65836mECoRChatrapur, Odisha
15/==/BAMBrahmapur (3)X  16:15 16:20+1416:20 16:25+165m31191.07327mECoRBerhampur, Odisha
16/==/IPMIchchapuram  16:42 16:45+2916:43 16:47+291 2m--1215.58321mECoRIchchapuram, Andhra Pradesh
17/==/SPTSompeta (4)X  17:01 17:00+817:02+151 2m--1233.57148mECoRKanchili, Andhra Pradesh
18/==/MMSMandasa Road  17:15 17:18+1817:16 17:20+261 2m11252.31238mECoRSrikakulam, Andhra Pradesh
19/==/PSAPalasa (3)X  18:25-118:30+15m--1265.47431mECoRKasibugga, Andhra Pradesh
20/==/PUNPundi  18:41 18:40+818:42+81 2m--1277.66838mECoRSrikakulam, Andhra Pradesh
21/==/NWPNaupada Junction  18:55 18:54+818:56+81 2m--1291.18313mECoRNuapada . ph.no. 08945-249728, Andhra Pradesh
22/==/KBMKotabommaliX  19:07 19:06+919:08+101 2m--1304.98213mECoRSrikakulam, Andhra Pradesh
23/==/TIUTilaru (4)  19:19 19:18+1119:20+141 2m--1318.65950mECoRSrikakulam District, Andhra Pradesh
24/==/CHESrikakulam Road (4)X  19:40+1219:45+125m--1338.44834mECoRsrikakulam road ph .no. 08942-287222, Andhra Pradesh
25/==/DUSIDusi  19:54 19:53+1119:55+121 2m--1344.86628mECoRSrikakulam, Andhra Pradesh
26/==/PDUPonduru  20:04 20:03+1220:05+141 2m--1353.77539mECoRSrikakulam, Andhra Pradesh
27/==/SGDMSigadam  20:14 20:13+1520:15+161 2m--1363.78067mECoRSrikakulam, Andhra Pradesh
28/==/CPPChipurupalleX  20:26 20:25+1620:27+201 2m--1377.04999mECoRCheepurupalli, Andhra Pradesh
29/==/GVIGarividiX  20:36 20:35+2020:37+231 2m--1383.62892mECoRGarividi Railway Station Rd, Andhra Pradesh
30/==/VZMVizianagaram Junction (5)  21:30+321:35+45m--1407.97063mECoRVizianagaram, Andhra Pradesh
31/==/KTVKottavalasa Junction (5)O  22:06 22:05+922:07+91 2m--1442.96858mECoRVizianagaram District, Andhra Pradesh
32/==/SCMSimhachalam (2)XO  22:24 22:23-22:25-1 2m--1460.9927mECoRVisakhapatnam, Andhra Pradesh
33/==/VSKPVisakhapatnam Junction (8)X23:20-123:40+320m21469.03511mECoRVishakhapatnam 530001, Andhra Pradesh
34/==/DVDDuvvada (4)X  00:09 00:08+800:10+111 2m12485.45346mECoRVishakhapatnam District, Andhra Pradesh
35/==/AKPAnakapalle (3)  00:28+1700:29+181m22501.45930mSCRAnakapalle ph.no . 08924-221698, Andhra Pradesh
36/==/YLMElamanchili (2)  00:53+2100:54+211m--2525.110423mSCRVisakhapatnam District, Andhra Pradesh
37/==/TUNITuni (2)  01:17+2801:18+291m12565.17124mSCRTuni ph.no. 08854-252172, Andhra Pradesh
38/==/ANVAnnavaram (3)X  01:32+3101:33+331m12581.88327mSCREast Godavari District, Andhra Pradesh
39/==/PAPPithapuram (2)X  01:51+3501:52+351m--2606.65622mSCREast Godavari District, Andhra Pradesh
40/==/SLOSamalkot Junction (3)X  02:05+3302:06+341m32618.78418mSCRSamalkot, Andhra Pradesh
41/==/APTAnaparti (3)X  02:25+4002:26+411m--2645.24521mSCREast Godavari District, Andhra Pradesh
42/==/DWPDwarapudi (3)  02:31+4102:32+421m--2648.93120mSCREast Godavari District, Andhra Pradesh
43/==/RJYRajahmundry (3)X03:10+2703:25+3015m12668.83623mSCRRajahmundry ph.no. 0883-2420541, Andhra Pradesh
44/==/KVRKovvur (3)  03:38+3703:39+391m32676.74325mSCRWest Godavari, Andhra Pradesh
45/==/NDDNidadavolu Junction (3)  03:59+3804:00+391m22691.05420mSCRNidadavolu jtn ph.no. 08813-210325, Andhra Pradesh
46|--|TNKUTanuku (2)  04:19+4604:20+471m--2708.14512mSCR131, Andhra Pradesh
47|--|ALAttili (1)  04:34+4704:35+471m12718.74614mSCRWest Godavari, Andhra Pradesh
48|--|BVRTBhimavaram Town (2)X  05:01+4605:02+471m12738.5488mSCRBhimavaram, Andhra Pradesh
49|--|AKVDAkividu (3)X  05:24+5505:25+591m--2756.2485mSCRCoast Andhra, Andhra Pradesh
50|--|KKLRKaikaluru (2)X  05:46+1:0205:47+1:061m--2772.8348mSCRKaikalur, Andhra Pradesh
51|--|GDVGudivada Junction (3)X  06:39+1:0006:40+1:021m--2802.13211mSCRKrishna District, Andhra Pradesh
52|--|BZAVijayawada Junction (10)X  08:00+3908:20+3720m42845.35624mSCRVijayawada 520001, Andhra Pradesh
53/==/DIGDuggirala (3)  08:43+5608:44+561m--2866.96516mSCRDuggirala, Andhra Pradesh
54/==/TELTenali Junction (5)  08:53+5208:54+541m32876.66616mSCRTel: 08644-227834, Andhra Pradesh
55/==/NDONidubrolu (3)X  09:14+1:0209:15+1:071m--2898.6659mSCRNidubrolu, Andhra Pradesh
56/==/BPPBapatla (3)  09:34+1:0509:35+1:051m22919.27510mSCRBapatla, Andhra Pradesh
57/==/CLXChirala (4)  09:47+1:0809:48+1:101m--2934.2528mSCRChirala, Andhra Pradesh
58/==/VTMVetapalem (3)  09:57+1:1209:58+1:151m--2942.1688mSCRVetapalem, Andhra Pradesh
59/==/CJMChinnaganjam (3)X  10:09+1:1610:10+1:171m--2954.5659mSCRChinna Ganjam, Andhra Pradesh
60/==/ANBAmmanabrolu (3)  10:23+1:1810:24+1:181m--2968.74516mSCRAmmanabrolu, Andhra Pradesh
61/==/OGLOngole (3)XO  10:44+1:0210:45+1:051m32983.66212mSCROngole, Andhra Pradesh
62/==/TNRTanguturu (3)  11:03+1:1611:04+1:161m--21002.27210mSCRTanguturu, Andhra Pradesh
63/==/SKMSingarayakonda (2)X  11:12+1:1411:13+1:151m221011.86326mSCRSingarayakonda, Andhra Pradesh
64/==/KVZKavali (4)XO  11:49+3:0211:50+3:021m221049.67021mSCRKavali, Andhra Pradesh
65/==/BTTRBitragunta (2)  12:04-12:05-1m221066.07615mSCRBitragunta, Andhra Pradesh
66/==/NLRNellore (4)X  12:32+3012:33+301m221100.32721mSCRNellore, Andhra Pradesh
67/==/GDRGudur Junction (3)X  14:00+5214:05+485m121138.86819mSCRGudur, Andhra Pradesh
68/==/VDDVendodu (2)X  14:22+5214:23+531m--21158.07655mSCRNellore, Andhra Pradesh
69/==/VKIVenkatagiri (3)X  14:36+5514:37+551m221174.66477mSCRNellore District, Andhra Pradesh
70/==/KHTSri Kalahasti (2)  15:01 15:00+5015:02+501 2m121199.03068mSCRChittoor District, Andhra Pradesh
71/==/RURenigunta Junction (5)  15:48+4715:50+472m--21222.213113mSCRChittoor District, Andhra Pradesh
72/==/TPTYTirupati Main (5)  16:35+8-421232.1-150mSCRChittoor Distt, Andhra Pradesh
Scroll to Top
Scroll to Bottom